Time;durP1;ratioP1;P1;durP2;ratioP2;P2;SDS_P1;SDS_P2;PMS_P1;PMS_P2;Temp;Humidity;BMP_temperature;BMP_pressure;BME280_temperature;BME280_humidity;BME280_pressure;Samples;Min_cycle;Max_cycle;Signal;HPM_P1;HPM_P2
2023/03/25 00:02:08;;;;;;;18.00;2.27;;;;;;;-145.18;100.00;46646.72;6152826;23;20376;-72
2023/03/25 00:04:34;;;;;;;20.77;2.60;;;;;;;-145.18;100.00;46642.81;6152661;23;20021;-72
2023/03/25 00:07:00;;;;;;;14.23;2.77;;;;;;;-145.18;100.00;46646.72;6152742;23;20463;-72
2023/03/25 00:09:25;;;;;;;17.23;3.40;;;;;;;-145.18;100.00;46646.72;6153088;23;20224;-72
2023/03/25 00:11:51;;;;;;;17.93;2.53;;;;;;;-145.18;100.00;46640.88;6152546;23;21115;-72
2023/03/25 00:14:16;;;;;;;14.87;1.70;;;;;;;-145.18;100.00;46652.59;6152778;23;20376;-72
2023/03/25 00:16:47;;;;;;;9.53;1.87;;;;;;;-145.18;100.00;46656.50;6152398;23;20675;-72
2023/03/25 00:19:15;;;;;;;14.67;1.87;;;;;;;-145.18;100.00;46662.34;6152969;23;20039;-72
2023/03/25 00:21:43;;;;;;;16.63;2.27;;;;;;;-145.18;100.00;46650.63;6152616;23;20260;-72
2023/03/25 00:24:11;;;;;;;18.23;2.30;;;;;;;-145.18;100.00;46652.59;6153022;23;20605;-72
2023/03/25 00:26:41;;;;;;;14.67;2.10;;;;;;;-145.18;100.00;46656.50;6152576;23;20279;-72
2023/03/25 00:29:09;;;;;;;15.00;1.97;;;;;;;-145.18;100.00;46660.41;6152926;23;20255;-72
2023/03/25 00:31:35;;;;;;;13.10;2.00;;;;;;;-145.18;100.00;46662.34;6152248;23;20235;-72
2023/03/25 00:34:00;;;;;;;15.37;2.23;;;;;;;-145.18;100.00;46656.50;6152500;23;20263;-72
2023/03/25 00:36:26;;;;;;;18.97;3.10;;;;;;;-145.18;100.00;46664.31;6151022;23;20036;-72
2023/03/25 00:38:51;;;;;;;12.97;2.70;;;;;;;-145.18;100.00;46656.50;6152694;23;20016;-72
2023/03/25 00:41:24;;;;;;;9.60;1.80;;;;;;;-145.18;100.00;46662.34;6152298;23;20016;-72
2023/03/25 00:43:57;;;;;;;11.10;1.53;;;;;;;-145.18;100.00;46654.53;6152515;23;20016;-72
2023/03/25 00:46:25;;;;;;;20.13;1.90;;;;;;;-145.18;100.00;46648.69;6152254;23;20238;-72
2023/03/25 00:48:51;;;;;;;9.23;1.40;;;;;;;-145.18;100.00;46654.53;6152258;23;20795;-72
2023/03/25 00:51:18;;;;;;;14.70;1.93;;;;;;;-145.18;100.00;46660.41;6152397;23;20236;-72
2023/03/25 00:53:44;;;;;;;13.27;1.57;;;;;;;-145.18;100.00;46664.31;6152197;23;20009;-72
2023/03/25 00:56:09;;;;;;;17.53;3.13;;;;;;;-145.18;100.00;46656.50;6152654;23;20254;-72
2023/03/25 00:58:35;;;;;;;11.43;1.73;;;;;;;-145.18;100.00;46668.22;6152322;23;20017;-73
2023/03/25 01:01:09;;;;;;;11.47;2.43;;;;;;;-145.18;100.00;46664.31;6152442;23;20092;-72
2023/03/25 01:03:36;;;;;;;11.63;1.90;;;;;;;-145.18;100.00;46660.41;6152008;23;20025;-72
2023/03/25 01:06:02;;;;;;;16.70;2.67;;;;;;;-145.18;100.00;46662.34;6152198;23;20248;-72
2023/03/25 01:08:28;;;;;;;11.60;1.73;;;;;;;-145.18;100.00;46660.41;6152577;23;20263;-72
2023/03/25 01:10:55;;;;;;;13.17;2.57;;;;;;;-145.18;100.00;46662.34;6152241;23;20298;-72
2023/03/25 01:13:21;;;;;;;16.37;1.57;;;;;;;-145.18;100.00;46652.59;6152144;23;20244;-73
2023/03/25 01:15:47;;;;;;;18.67;1.60;;;;;;;-145.18;100.00;46642.81;6152091;23;20314;-72
2023/03/25 01:18:13;;;;;;;14.33;2.10;;;;;;;-145.18;100.00;46638.91;6152348;23;20621;-73
2023/03/25 01:20:39;;;;;;;15.40;1.97;;;;;;;-145.18;100.00;46635.00;6151892;23;20013;-73
2023/03/25 01:23:04;;;;;;;17.63;2.43;;;;;;;-145.18;100.00;46629.13;6152277;23;20448;-73
2023/03/25 01:25:30;;;;;;;10.67;1.60;;;;;;;-145.18;100.00;46660.41;6152447;23;20243;-74
2023/03/25 01:27:55;;;;;;;14.03;1.97;;;;;;;-145.18;100.00;46660.41;6152179;23;20005;-73
2023/03/25 01:30:21;;;;;;;9.50;1.27;;;;;;;-145.18;100.00;46642.81;6152301;23;20339;-72
2023/03/25 01:32:46;;;;;;;20.47;2.33;;;;;;;-145.18;100.00;46638.91;6152317;23;20021;-72
2023/03/25 01:35:12;;;;;;;15.30;2.00;;;;;;;-145.18;100.00;46636.94;6152207;23;20454;-72
2023/03/25 01:37:38;;;;;;;12.83;1.93;;;;;;;-145.18;100.00;46636.94;6151823;23;20064;-72
2023/03/25 01:40:06;;;;;;;16.17;1.60;;;;;;;-145.18;100.00;46638.91;6152605;23;20016;-72
2023/03/25 01:42:32;;;;;;;17.93;2.43;;;;;;;-145.18;100.00;46638.91;6152172;23;20342;-72
2023/03/25 01:45:13;;;;;;;15.73;2.13;;;;;;;-145.18;100.00;46636.94;6151855;23;20275;-72
2023/03/25 01:47:40;;;;;;;12.37;1.80;;;;;;;-145.18;100.00;46640.88;6152089;23;20005;-72
2023/03/25 01:50:13;;;;;;;12.30;1.77;;;;;;;-145.18;100.00;46658.44;6152155;23;20227;-72
2023/03/25 01:52:40;;;;;;;6.43;1.67;;;;;;;-145.18;100.00;46679.94;6151751;23;20236;-72
2023/03/25 01:55:06;;;;;;;10.17;1.60;;;;;;;-145.18;100.00;46658.44;6152278;23;20232;-72
2023/03/25 01:57:32;;;;;;;11.77;1.80;;;;;;;-145.18;100.00;46674.06;6152104;23;20302;-72
2023/03/25 01:59:58;;;;;;;12.60;1.57;;;;;;;-145.18;100.00;46683.84;6151735;23;20017;-71
2023/03/25 02:02:35;;;;;;;16.80;2.07;;;;;;;-145.18;100.00;46687.75;6128495;23;20025;-72
2023/03/25 02:05:09;;;;;;;12.37;1.97;;;;;;;-145.18;100.00;46687.75;6150907;23;20018;-72
2023/03/25 02:07:41;;;;;;;20.97;2.20;;;;;;;-145.18;100.00;46681.88;6152022;23;20231;-73
2023/03/25 02:10:10;;;;;;;11.83;2.63;;;;;;;-145.18;100.00;46679.94;6151622;23;20736;-73
2023/03/25 02:12:35;;;;;;;15.00;2.50;;;;;;;-145.18;100.00;46693.59;6151978;23;20251;-73
2023/03/25 02:15:04;;;;;;;18.03;2.33;;;;;;;-145.18;100.00;46689.69;6150546;23;20306;-72
2023/03/25 02:17:48;;;;;;;15.20;1.97;;;;;;;-145.18;100.00;46685.78;6152072;23;20033;-72
2023/03/25 02:20:45;;;;;;;11.93;2.50;;;;;;;-145.18;100.00;46677.97;6152205;23;20220;-73
2023/03/25 02:23:27;;;;;;;16.27;2.33;;;;;;;-145.18;100.00;46701.41;6117918;23;20287;-73
2023/03/25 02:26:36;;;;;;;10.90;2.97;;;;;;;-145.18;100.00;46717.03;6152343;23;20231;-74
2023/03/25 02:29:26;;;;;;;10.67;2.30;;;;;;;-145.18;100.00;46724.84;6090060;23;20579;-73
2023/03/25 02:32:33;;;;;;;12.40;2.50;;;;;;;-145.18;100.00;46719.00;6151906;23;20322;-73
2023/03/25 02:35:31;;;;;;;9.70;2.90;;;;;;;-145.18;100.00;46715.09;6139153;23;20243;-72
2023/03/25 02:38:18;;;;;;;16.03;3.30;;;;;;;-145.18;100.00;46717.03;6151931;23;20386;-72
2023/03/25 02:40:54;;;;;;;12.30;3.17;;;;;;;-145.18;100.00;46719.00;6152531;23;20227;-72
2023/03/25 02:43:26;;;;;;;13.47;2.77;;;;;;;-145.18;100.00;46713.13;6152123;23;20695;-73
2023/03/25 02:45:55;;;;;;;13.03;2.87;;;;;;;-145.18;100.00;46715.09;6152378;23;20259;-73
2023/03/25 02:48:32;;;;;;;14.27;2.97;;;;;;;-145.18;100.00;46717.03;6152101;23;20294;-72
2023/03/25 02:51:03;;;;;;;15.07;3.13;;;;;;;-145.18;100.00;46711.19;6151999;23;20661;-72
2023/03/25 02:53:32;;;;;;;12.13;3.00;;;;;;;-145.18;100.00;46717.03;6151938;23;20355;-72
2023/03/25 02:56:01;;;;;;;12.70;3.20;;;;;;;-145.18;100.00;46715.09;6153000;23;20224;-72
2023/03/25 02:58:29;;;;;;;14.83;2.77;;;;;;;-145.18;100.00;46713.13;6153733;23;20286;-73
2023/03/25 03:00:57;;;;;;;9.17;2.67;;;;;;;-145.18;100.00;46713.13;6153765;23;20273;-72
2023/03/25 03:03:24;;;;;;;16.00;3.00;;;;;;;-145.18;100.00;46715.09;6150342;23;20265;-72
2023/03/25 03:05:52;;;;;;;14.07;3.03;;;;;;;-145.18;100.00;46713.13;6154024;23;20322;-72
2023/03/25 03:08:38;;;;;;;11.70;2.63;;;;;;;-145.18;100.00;46711.19;6153762;23;20232;-72
2023/03/25 03:11:26;;;;;;;7.28;2.70;;;;;;;-145.18;100.00;46715.09;6153881;23;20712;-72
2023/03/25 03:13:52;;;;;;;21.30;2.53;;;;;;;-145.18;100.00;46715.09;6153403;23;20486;-72
2023/03/25 03:16:30;;;;;;;18.07;2.93;;;;;;;-145.18;100.00;46719.00;6154052;23;20232;-72
2023/03/25 03:19:36;;;;;;;16.80;2.97;;;;;;;-145.18;100.00;46719.00;6153405;23;20009;-72
2023/03/25 03:22:13;;;;;;;15.60;2.33;;;;;;;-145.18;100.00;46719.00;6062643;23;20296;-72
2023/03/25 03:24:42;;;;;;;18.70;4.33;;;;;;;-145.18;100.00;46715.09;6063540;23;20010;-72
2023/03/25 03:27:16;;;;;;;17.90;2.30;;;;;;;-145.18;100.00;46720.94;6115219;23;20243;-72
2023/03/25 03:29:48;;;;;;;17.97;3.00;;;;;;;-145.18;100.00;46717.03;6153940;23;20593;-72
2023/03/25 03:32:27;;;;;;;15.90;3.07;;;;;;;-145.18;100.00;46720.94;6153478;23;20877;-72
2023/03/25 03:34:56;;;;;;;12.63;2.63;;;;;;;-145.18;100.00;46720.94;6153773;23;20243;-72
2023/03/25 03:37:28;;;;;;;17.57;2.70;;;;;;;-145.18;100.00;46719.00;6153725;23;20240;-72
2023/03/25 03:39:56;;;;;;;20.63;3.30;;;;;;;-145.18;100.00;46720.94;6153781;23;20263;-72
2023/03/25 03:42:27;;;;;;;12.53;3.23;;;;;;;-145.18;100.00;46715.09;6153458;23;20251;-72
2023/03/25 03:44:59;;;;;;;13.80;2.53;;;;;;;-145.18;100.00;46719.00;6153567;23;20231;-72
2023/03/25 03:47:29;;;;;;;15.93;3.33;;;;;;;-145.18;100.00;46717.03;6153525;23;20223;-73
2023/03/25 03:50:16;;;;;;;16.53;3.47;;;;;;;-145.18;100.00;46715.09;6153432;23;20557;-73
2023/03/25 03:52:49;;;;;;;16.53;3.10;;;;;;;-145.18;100.00;46713.13;6153556;23;20602;-73
2023/03/25 03:55:22;;;;;;;15.67;2.70;;;;;;;-145.18;100.00;46709.22;6151764;23;20239;-73
2023/03/25 03:57:57;;;;;;;17.80;3.30;;;;;;;-145.18;100.00;46715.09;6153223;23;20231;-73
2023/03/25 04:00:38;;;;;;;21.38;3.00;;;;;;;-145.18;100.00;46705.31;6153684;23;20232;-73
2023/03/25 04:03:13;;;;;;;13.07;3.07;;;;;;;-145.18;100.00;46709.22;6149755;23;20072;-72
2023/03/25 04:05:42;;;;;;;14.13;2.60;;;;;;;-145.18;100.00;46711.19;6153597;23;20692;-73
2023/03/25 04:08:20;;;;;;;17.20;2.60;;;;;;;-145.18;100.00;46709.22;6152865;23;20228;-73
2023/03/25 04:10:53;;;;;;;22.63;3.40;;;;;;;-145.18;100.00;46705.31;6153942;23;20215;-73
2023/03/25 04:13:21;;;;;;;19.93;4.23;;;;;;;-145.18;100.00;46711.19;6144477;23;20263;-73
2023/03/25 04:15:47;;;;;;;22.40;2.83;;;;;;;-145.18;100.00;46715.09;6153220;23;20235;-73
2023/03/25 04:18:12;;;;;;;23.47;2.40;;;;;;;-145.18;100.00;46713.13;6152864;23;20231;-73
2023/03/25 04:20:43;;;;;;;27.23;2.83;;;;;;;-145.18;100.00;46719.00;6153352;23;20270;-73
2023/03/25 04:23:14;;;;;;;13.00;2.40;;;;;;;-145.18;100.00;46719.00;6152807;23;20100;-73
2023/03/25 04:25:40;;;;;;;14.27;3.40;;;;;;;-145.18;100.00;46720.94;6151555;23;20662;-73
2023/03/25 04:28:06;;;;;;;14.47;3.07;;;;;;;-145.18;100.00;46719.00;6152347;23;20275;-73
2023/03/25 04:30:32;;;;;;;20.70;2.63;;;;;;;-145.18;100.00;46717.03;6151676;23;20322;-73
2023/03/25 04:32:59;;;;;;;15.50;2.83;;;;;;;-145.18;100.00;46720.94;6152602;23;20124;-72
2023/03/25 04:35:24;;;;;;;20.73;2.77;;;;;;;-145.18;100.00;46720.94;6151416;23;20021;-73
2023/03/25 04:37:53;;;;;;;21.00;2.60;;;;;;;-145.18;100.00;46719.00;6151370;23;20327;-73
2023/03/25 04:40:19;;;;;;;20.30;3.87;;;;;;;-145.18;100.00;46717.03;6152977;23;20048;-73
2023/03/25 04:42:45;;;;;;;16.20;2.83;;;;;;;-145.18;100.00;46715.09;6150698;23;20244;-72
2023/03/25 04:45:15;;;;;;;17.37;3.87;;;;;;;-145.18;100.00;46717.03;6152739;23;20009;-73
2023/03/25 04:47:43;;;;;;;18.07;2.53;;;;;;;-145.18;100.00;46713.13;6152584;23;20239;-72
2023/03/25 04:50:20;;;;;;;17.73;2.60;;;;;;;-145.18;100.00;46711.19;6152882;23;20232;-72
2023/03/25 04:52:46;;;;;;;16.03;2.50;;;;;;;-145.18;100.00;46711.19;6152639;23;20259;-72
2023/03/25 04:55:16;;;;;;;18.87;2.60;;;;;;;-145.18;100.00;46711.19;6152583;23;20239;-73
2023/03/25 04:57:43;;;;;;;16.57;3.17;;;;;;;-145.18;100.00;46715.09;6152405;23;20482;-72
2023/03/25 05:00:10;;;;;;;19.93;2.83;;;;;;;-145.18;100.00;46717.03;6152618;23;20319;-72
2023/03/25 05:02:36;;;;;;;13.57;2.03;;;;;;;-145.18;100.00;46715.09;6148661;23;20760;-72
2023/03/25 05:05:03;;;;;;;17.67;3.97;;;;;;;-145.18;100.00;46719.00;6152575;23;20716;-72
2023/03/25 05:07:29;;;;;;;20.20;3.00;;;;;;;-145.18;100.00;46715.09;6152121;23;20278;-72
2023/03/25 05:09:56;;;;;;;14.20;3.50;;;;;;;-145.18;100.00;46719.00;6152013;23;20239;-73
2023/03/25 05:12:21;;;;;;;16.20;2.90;;;;;;;-145.18;100.00;46715.09;6152361;23;20016;-73
2023/03/25 05:14:47;;;;;;;17.87;3.57;;;;;;;-145.18;100.00;46720.94;6152204;23;20259;-73
2023/03/25 05:17:12;;;;;;;13.73;2.87;;;;;;;-145.18;100.00;46719.00;6152157;23;20036;-73
2023/03/25 05:19:42;;;;;;;10.10;2.70;;;;;;;-145.18;100.00;46717.03;6147592;23;20085;-73
2023/03/25 05:22:08;;;;;;;13.07;2.23;;;;;;;-145.18;100.00;46719.00;6151470;23;20676;-72
2023/03/25 05:24:34;;;;;;;20.03;2.90;;;;;;;-145.18;100.00;46720.94;6152390;23;20319;-73
2023/03/25 05:27:01;;;;;;;16.13;2.17;;;;;;;-145.18;100.00;46720.94;6152346;23;20088;-73
2023/03/25 05:29:27;;;;;;;11.00;2.30;;;;;;;-145.18;100.00;46719.00;6150559;23;20013;-72
2023/03/25 05:31:52;;;;;;;26.43;3.93;;;;;;;-145.18;100.00;46720.94;6150777;23;20239;-72
2023/03/25 05:34:19;;;;;;;18.87;2.60;;;;;;;-145.18;100.00;46722.91;6150412;23;20310;-73
2023/03/25 05:36:44;;;;;;;20.70;2.93;;;;;;;-145.18;100.00;46724.84;6152490;23;20016;-73
2023/03/25 05:39:10;;;;;;;20.47;3.57;;;;;;;-145.18;100.00;46720.94;6152118;23;20704;-73
2023/03/25 05:41:38;;;;;;;14.13;3.33;;;;;;;-145.18;100.00;46720.94;6152320;23;20037;-72
2023/03/25 05:44:05;;;;;;;14.67;2.80;;;;;;;-145.18;100.00;46722.91;6151879;23;20006;-73
2023/03/25 05:46:31;;;;;;;13.27;2.53;;;;;;;-145.18;100.00;46722.91;6150606;23;20310;-72
2023/03/25 05:48:56;;;;;;;18.03;2.27;;;;;;;-145.18;100.00;46717.03;6151581;23;20353;-72
2023/03/25 05:51:23;;;;;;;23.07;2.67;;;;;;;-145.18;100.00;46722.91;6152205;23;20013;-73
2023/03/25 05:53:49;;;;;;;16.80;2.50;;;;;;;-145.18;100.00;46719.00;6151585;23;20001;-72
2023/03/25 05:56:20;;;;;;;15.23;2.17;;;;;;;-145.18;100.00;46720.94;6151532;23;20293;-73
2023/03/25 05:58:47;;;;;;;16.37;2.33;;;;;;;-145.18;100.00;46719.00;6152255;23;20016;-73
2023/03/25 06:01:15;;;;;;;11.83;2.10;;;;;;;-145.18;100.00;46719.00;6152449;23;20282;-73
2023/03/25 06:03:42;;;;;;;16.07;2.70;;;;;;;-145.18;100.00;46719.00;6152130;23;20271;-73
2023/03/25 06:06:12;;;;;;;13.43;2.87;;;;;;;-145.18;100.00;46717.03;6152207;23;20227;-72
2023/03/25 06:08:40;;;;;;;25.43;3.23;;;;;;;-145.18;100.00;46697.50;6152189;23;20235;-73
2023/03/25 06:11:08;;;;;;;22.30;3.40;;;;;;;-145.18;100.00;46693.59;6152567;23;20263;-73
2023/03/25 06:13:36;;;;;;;22.83;2.60;;;;;;;-145.18;100.00;46679.94;6152281;23;20236;-73
2023/03/25 06:16:04;;;;;;;16.97;2.10;;;;;;;-145.18;100.00;46646.72;6146125;23;20307;-73
2023/03/25 06:18:30;;;;;;;16.10;2.03;;;;;;;-145.18;100.00;46660.41;6151986;23;20689;-74
2023/03/25 06:20:56;;;;;;;12.47;2.03;;;;;;;-145.18;100.00;46656.50;6150136;23;20601;-74
2023/03/25 06:23:23;;;;;;;22.40;2.63;;;;;;;-145.18;100.00;46640.88;6152197;23;20263;-73
2023/03/25 06:25:50;;;;;;;17.80;2.57;;;;;;;-145.18;100.00;46633.06;6152418;23;20009;-74
2023/03/25 06:28:17;;;;;;;18.20;2.10;;;;;;;-145.18;100.00;46633.06;6152002;23;20592;-74
2023/03/25 06:30:44;;;;;;;21.27;2.40;;;;;;;-145.18;100.00;46636.94;6152845;23;20335;-74
2023/03/25 06:33:09;;;;;;;15.03;2.67;;;;;;;-145.18;100.00;46640.88;6153631;23;20246;-74
2023/03/25 06:35:35;;;;;;;19.00;3.13;;;;;;;-145.18;100.00;46656.50;6154400;23;20232;-74
2023/03/25 06:38:00;;;;;;;24.67;3.13;;;;;;;-145.18;100.00;46660.41;6153595;23;20514;-74
2023/03/25 06:40:26;;;;;;;17.73;2.67;;;;;;;-145.18;100.00;46660.41;6154271;23;20403;-75
2023/03/25 06:42:51;;;;;;;20.03;2.67;;;;;;;-145.18;100.00;46654.53;6151197;23;20392;-75
2023/03/25 06:45:17;;;;;;;16.30;2.70;;;;;;;-145.18;100.00;46687.75;6153091;23;20076;-76
2023/03/25 06:47:42;;;;;;;9.27;2.30;;;;;;;-145.18;100.00;46709.22;6153911;23;20082;-75
2023/03/25 06:50:08;;;;;;;17.90;3.27;;;;;;;-145.18;100.00;46707.28;6153787;23;20013;-75
2023/03/25 06:52:33;;;;;;;20.73;3.03;;;;;;;-145.18;100.00;46713.13;6153668;23;20088;-76
2023/03/25 06:54:59;;;;;;;23.63;2.80;;;;;;;-145.18;100.00;46715.09;6153224;23;20017;-76
2023/03/25 06:57:24;;;;;;;22.17;3.00;;;;;;;-145.18;100.00;46713.13;6154105;23;20415;-76
2023/03/25 06:59:50;;;;;;;25.40;2.83;;;;;;;-145.18;100.00;46713.13;6153864;23;20025;-76
2023/03/25 07:02:15;;;;;;;15.20;3.03;;;;;;;-145.18;100.00;46713.13;6153299;23;20048;-76
2023/03/25 07:04:41;;;;;;;16.67;2.70;;;;;;;-145.18;100.00;46713.13;6153401;23;20101;-76
2023/03/25 07:07:08;;;;;;;21.07;2.57;;;;;;;-145.18;100.00;46709.22;6143514;23;20117;-76
2023/03/25 07:09:33;;;;;;;13.60;2.23;;;;;;;-145.18;100.00;46709.22;6145309;23;20005;-76
2023/03/25 07:11:59;;;;;;;37.00;4.30;;;;;;;-145.18;100.00;46707.28;6145521;23;20236;-76
2023/03/25 07:14:24;;;;;;;18.63;2.70;;;;;;;-145.18;100.00;46707.28;6144942;23;20469;-75
2023/03/25 07:16:50;;;;;;;11.27;2.10;;;;;;;-145.18;100.00;46711.19;6137611;23;20013;-76
2023/03/25 07:19:15;;;;;;;20.70;3.57;;;;;;;-145.18;100.00;46703.38;6144249;23;20067;-76
2023/03/25 07:21:40;;;;;;;24.70;3.10;;;;;;;-145.18;100.00;46703.38;6145735;23;20037;-76
2023/03/25 07:24:06;;;;;;;19.30;2.87;;;;;;;-145.18;100.00;46697.50;6142692;23;20378;-76
2023/03/25 07:26:31;;;;;;;22.70;3.10;;;;;;;-145.18;100.00;46699.47;6145240;23;20009;-76
2023/03/25 07:28:57;;;;;;;21.90;2.40;;;;;;;-145.18;100.00;46701.41;6144068;23;20009;-77
2023/03/25 07:31:22;;;;;;;30.37;3.33;;;;;;;-145.18;100.00;46701.41;6144714;23;20439;-77
2023/03/25 07:33:48;;;;;;;26.77;3.53;;;;;;;-145.18;100.00;46699.47;6146039;23;20083;-76
2023/03/25 07:36:13;;;;;;;34.20;3.40;;;;;;;-145.18;100.00;46695.56;6141273;23;20014;-77
2023/03/25 07:38:39;;;;;;;30.00;3.70;;;;;;;-145.18;100.00;46691.66;6143997;23;20014;-76
2023/03/25 07:41:13;;;;;;;27.70;3.70;;;;;;;-145.18;100.00;46687.75;6144706;23;20009;-76
2023/03/25 07:43:39;;;;;;;19.17;3.13;;;;;;;-145.18;100.00;46687.75;6144658;23;20303;-76
2023/03/25 07:46:05;;;;;;;21.67;4.27;;;;;;;-145.18;100.00;46693.59;6144422;23;20239;-74
2023/03/25 07:48:31;;;;;;;18.50;3.37;;;;;;;-145.18;100.00;46693.59;6145278;23;20010;-75
2023/03/25 07:50:57;;;;;;;25.50;3.43;;;;;;;-145.18;100.00;46691.66;6146359;23;20382;-75
2023/03/25 07:53:22;;;;;;;15.10;3.67;;;;;;;-145.18;100.00;46695.56;6143901;23;20366;-75
2023/03/25 07:55:50;;;;;;;21.60;3.30;;;;;;;-145.18;100.00;46695.56;6146295;23;20020;-76
2023/03/25 07:58:17;;;;;;;21.33;3.10;;;;;;;-145.18;100.00;46693.59;6145461;23;20013;-76
2023/03/25 08:00:42;;;;;;;27.03;3.63;;;;;;;-145.18;100.00;46689.69;6146609;23;20301;-75
2023/03/25 08:03:10;;;;;;;17.80;2.97;;;;;;;-145.18;100.00;46693.59;6145952;23;20354;-75
2023/03/25 08:05:36;;;;;;;23.33;3.33;;;;;;;-145.18;100.00;46695.56;6145496;23;20522;-76
2023/03/25 08:08:04;;;;;;;36.10;3.63;;;;;;;-145.18;100.00;46691.66;6138692;23;20232;-76
2023/03/25 08:10:30;;;;;;;17.07;2.63;;;;;;;-145.18;100.00;46693.59;6145542;23;20334;-77
2023/03/25 08:12:56;;;;;;;18.10;3.43;;;;;;;-145.18;100.00;46691.66;6144099;23;20247;-76
2023/03/25 08:15:24;;;;;;;16.97;4.17;;;;;;;-145.18;100.00;46699.47;6145613;23;20346;-77
2023/03/25 08:17:51;;;;;;;32.57;4.63;;;;;;;-145.18;100.00;46689.69;6145614;23;20033;-77
2023/03/25 08:20:17;;;;;;;18.27;3.23;;;;;;;-145.18;100.00;46687.75;6145380;23;20723;-77
2023/03/25 08:22:46;;;;;;;15.57;2.33;;;;;;;-145.18;100.00;46687.75;6145709;23;20247;-76
2023/03/25 08:25:11;;;;;;;18.87;3.40;;;;;;;-145.18;100.00;46677.97;6145021;23;20369;-76
2023/03/25 08:27:37;;;;;;;27.97;3.57;;;;;;;-145.18;100.00;46679.94;6145886;23;20768;-77
2023/03/25 08:30:03;;;;;;;17.43;3.20;;;;;;;-145.18;100.00;46674.06;6144867;23;20018;-76
2023/03/25 08:32:29;;;;;;;16.57;2.63;;;;;;;-145.18;100.00;46677.97;6145607;23;20032;-76
2023/03/25 08:34:55;;;;;;;20.90;4.20;;;;;;;-145.18;100.00;46676.03;6145347;23;20235;-77
2023/03/25 08:37:21;;;;;;;25.83;3.10;;;;;;;-145.18;100.00;46677.97;6145243;23;20016;-76
2023/03/25 08:39:49;;;;;;;17.20;3.53;;;;;;;-145.18;100.00;46681.88;6145322;23;20243;-77
2023/03/25 08:42:15;;;;;;;30.53;3.97;;;;;;;-145.18;100.00;46685.78;6119487;23;20443;-77
2023/03/25 08:44:41;;;;;;;17.57;3.20;;;;;;;-145.18;100.00;46685.78;6144784;23;20232;-76
2023/03/25 08:47:07;;;;;;;19.43;3.17;;;;;;;-145.18;100.00;46672.13;6145630;23;20271;-77
2023/03/25 08:49:32;;;;;;;16.40;3.17;;;;;;;-145.18;100.00;46683.84;6145336;23;20014;-77
2023/03/25 08:52:00;;;;;;;24.23;3.50;;;;;;;-145.18;100.00;46681.88;6144873;23;20013;-77
2023/03/25 08:54:29;;;;;;;27.43;3.63;;;;;;;-145.18;100.00;46687.75;6142600;23;20029;-77
2023/03/25 08:56:55;;;;;;;21.50;3.30;;;;;;;-145.18;100.00;46687.75;6145148;23;20238;-78
2023/03/25 08:59:20;;;;;;;27.73;5.03;;;;;;;-145.18;100.00;46689.69;6145743;23;20652;-77
2023/03/25 09:01:46;;;;;;;28.57;3.90;;;;;;;-145.18;100.00;46689.69;6142283;23;20010;-77
2023/03/25 09:04:11;;;;;;;17.73;3.00;;;;;;;-145.18;100.00;46689.69;6141117;23;20021;-77
2023/03/25 09:06:38;;;;;;;27.90;3.43;;;;;;;-145.18;100.00;46689.69;6144164;23;20465;-77
2023/03/25 09:09:04;;;;;;;32.53;4.70;;;;;;;-145.18;100.00;46685.78;6142095;23;20088;-77
2023/03/25 09:11:31;;;;;;;24.13;4.20;;;;;;;-145.18;100.00;46679.94;6145164;23;20273;-77
2023/03/25 09:13:56;;;;;;;33.73;4.63;;;;;;;-145.18;100.00;46664.31;6144852;23;20561;-77
2023/03/25 09:16:21;;;;;;;29.53;3.70;;;;;;;-145.18;100.00;46668.22;6144896;23;20243;-77
2023/03/25 09:18:47;;;;;;;27.43;3.97;;;;;;;-145.18;100.00;46627.19;6144383;23;20010;-76
2023/03/25 09:21:12;;;;;;;52.43;4.70;;;;;;;-145.18;100.00;46607.66;6143924;23;20386;-77
2023/03/25 09:23:38;;;;;;;25.83;4.27;;;;;;;-145.18;100.00;46586.16;6143019;23;20013;-77
2023/03/25 09:26:04;;;;;;;31.10;3.63;;;;;;;-145.18;100.00;46570.53;6144812;23;20100;-76
2023/03/25 09:28:30;;;;;;;21.50;3.60;;;;;;;-145.18;100.00;46568.59;6142475;23;20188;-77
2023/03/25 09:30:55;;;;;;;28.60;3.47;;;;;;;-145.18;100.00;46572.50;6144576;23;20303;-77
2023/03/25 09:33:21;;;;;;;26.77;3.63;;;;;;;-145.18;100.00;46568.59;6144247;23;20013;-77
2023/03/25 09:35:47;;;;;;;30.43;3.40;;;;;;;-145.18;100.00;46584.22;6150377;23;20025;-77
2023/03/25 09:38:13;;;;;;;24.90;3.77;;;;;;;-145.18;100.00;46593.97;6151173;23;20005;-77
2023/03/25 09:40:43;;;;;;;24.63;3.50;;;;;;;-145.18;100.00;46601.78;6152168;23;20290;-77
2023/03/25 09:43:48;;;;;;;24.37;4.00;;;;;;;-145.18;100.00;46603.75;6150373;23;20446;-77
2023/03/25 09:46:13;;;;;;;23.33;3.80;;;;;;;-145.18;100.00;46619.38;6149824;23;20244;-77
2023/03/25 09:48:41;;;;;;;20.23;3.00;;;;;;;-145.18;100.00;46617.41;6150567;23;20168;-77
2023/03/25 09:51:14;;;;;;;34.77;3.67;;;;;;;-145.18;100.00;46621.31;6152211;23;20576;-76
2023/03/25 09:53:47;;;;;;;21.37;3.07;;;;;;;-145.18;100.00;46635.00;6152167;23;20013;-76
2023/03/25 09:56:20;;;;;;;26.23;4.30;;;;;;;-145.18;100.00;46640.88;6151961;23;20089;-77
2023/03/25 09:58:48;;;;;;;24.70;3.47;;;;;;;-145.18;100.00;46648.69;6152248;23;20232;-77
2023/03/25 10:01:25;;;;;;;19.93;3.53;;;;;;;-145.18;100.00;46654.53;6151904;23;20235;-77
2023/03/25 10:04:01;;;;;;;30.17;4.07;;;;;;;-145.18;100.00;46656.50;6150205;23;20100;-76
2023/03/25 10:06:31;;;;;;;26.77;3.37;;;;;;;-145.18;100.00;46674.06;6150591;23;20616;-76
2023/03/25 10:08:59;;;;;;;19.37;3.57;;;;;;;-145.18;100.00;46670.16;6151679;23;20084;-77
2023/03/25 10:11:50;;;;;;;28.17;5.07;;;;;;;-145.18;100.00;46701.41;6152015;23;20006;-76
2023/03/25 10:14:26;;;;;;;24.97;3.23;;;;;;;-145.18;100.00;46701.41;6106199;23;20005;-76
2023/03/25 10:17:13;;;;;;;22.37;3.93;;;;;;;-145.18;100.00;46701.41;6151996;23;20010;-76
2023/03/25 10:20:03;;;;;;;24.63;3.10;;;;;;;-145.18;100.00;46722.91;6151821;23;20012;-76
2023/03/25 10:22:55;;;;;;;14.23;1.77;;;;;;;-145.18;100.00;46744.38;6151701;23;20016;-76
2023/03/25 10:25:27;;;;;;;21.10;2.97;;;;;;;-145.18;100.00;46777.59;6151582;23;20001;-76
2023/03/25 10:27:56;;;;;;;25.53;2.90;;;;;;;-145.18;100.00;46775.66;6152251;23;20010;-76
2023/03/25 10:30:25;;;;;;;25.60;3.47;;;;;;;-145.18;100.00;46779.56;6151111;23;20005;-76
2023/03/25 10:32:54;;;;;;;20.10;2.90;;;;;;;-145.18;100.00;46777.59;6139507;23;20396;-76
2023/03/25 10:56:22;;;;;;;24.30;2.67;;;;;;;-145.18;100.00;46765.88;6113703;23;20022;-76
2023/03/25 10:58:52;;;;;;;20.47;2.57;;;;;;;-145.18;100.00;46789.31;6151275;23;20338;-75
2023/03/25 11:01:21;;;;;;;28.03;3.27;;;;;;;-145.18;100.00;46756.09;6150949;23;20005;-75
2023/03/25 11:03:51;;;;;;;22.20;4.33;;;;;;;-145.18;100.00;46734.63;6151268;23;20076;-75
2023/03/25 11:06:38;;;;;;;17.37;2.93;;;;;;;-145.18;100.00;46713.13;6149609;23;20092;-76
2023/03/25 11:09:07;;;;;;;14.60;2.20;;;;;;;-145.18;100.00;46715.09;6151283;23;20014;-76
2023/03/25 11:11:34;;;;;;;25.63;2.33;;;;;;;-145.18;100.00;46695.56;6151586;23;20002;-75
2023/03/25 11:14:01;;;;;;;17.90;2.60;;;;;;;-145.18;100.00;46691.66;6152058;23;20009;-75
2023/03/25 11:16:32;;;;;;;15.47;2.60;;;;;;;-145.18;100.00;46672.13;6152008;23;20001;-75
2023/03/25 11:19:00;;;;;;;19.37;3.73;;;;;;;-145.18;100.00;46687.75;6153842;23;20438;-75
2023/03/25 11:21:31;;;;;;;17.70;3.10;;;;;;;-145.18;100.00;46703.38;6153257;23;20043;-75
2023/03/25 11:23:59;;;;;;;24.77;3.37;;;;;;;-145.18;100.00;46742.44;6153376;23;20013;-75
2023/03/25 11:26:35;;;;;;;19.30;2.93;;;;;;;-145.18;100.00;46728.75;6152808;23;20019;-75
2023/03/25 11:29:12;;;;;;;16.10;2.20;;;;;;;-145.18;100.00;46793.22;6153456;23;20006;-75
2023/03/25 11:31:37;;;;;;;12.57;1.73;;;;;;;-145.18;100.00;46820.56;6153469;23;20010;-75
2023/03/25 11:34:20;;;;;;;27.63;3.50;;;;;;;-145.18;100.00;46834.25;6151698;23;20343;-75